createdAt,value
2022-09-22T00:07:53.347Z,6.93
2022-09-22T00:17:54.620Z,6.77
2022-09-22T00:27:56.723Z,6.78
2022-09-22T00:37:58.009Z,6.62
2022-09-22T00:48:00.372Z,6.67
2022-09-22T00:58:01.644Z,6.54
2022-09-22T01:08:02.959Z,6.40
2022-09-22T01:18:04.259Z,6.46
2022-09-22T01:28:05.455Z,6.38
2022-09-22T01:38:06.736Z,6.35
2022-09-22T01:48:09.160Z,6.30
2022-09-22T01:58:11.188Z,6.25
2022-09-22T02:08:12.482Z,6.14
2022-09-22T02:18:13.775Z,5.89
2022-09-22T02:28:15.059Z,5.81
2022-09-22T02:38:16.335Z,5.69
2022-09-22T02:48:17.546Z,5.56
2022-09-22T02:58:18.860Z,5.52
2022-09-22T03:08:20.150Z,5.59
2022-09-22T03:18:21.452Z,5.56
2022-09-22T03:28:22.674Z,5.51
2022-09-22T03:38:23.906Z,5.58
2022-09-22T03:48:25.219Z,5.60
2022-09-22T03:58:26.506Z,5.64
2022-09-22T04:08:27.943Z,5.61
2022-09-22T04:18:29.594Z,5.55
2022-09-22T04:28:30.795Z,5.57
2022-09-22T04:38:32.089Z,5.46
2022-09-22T04:48:33.354Z,5.39
2022-09-22T04:58:34.668Z,5.45
2022-09-22T05:08:36.012Z,5.36
2022-09-22T05:18:37.314Z,5.33
2022-09-22T05:28:38.595Z,5.36
2022-09-22T05:38:39.892Z,5.55
2022-09-22T05:48:41.172Z,5.60
2022-09-22T05:58:42.464Z,5.80
2022-09-22T06:08:48.371Z,5.99
2022-09-22T06:18:50.346Z,6.28
2022-09-22T06:28:51.623Z,6.67
2022-09-22T06:38:54.192Z,6.97
2022-09-22T06:48:58.424Z,7.35
2022-09-22T06:59:09.811Z,7.91
2022-09-22T07:09:12.424Z,8.25
2022-09-22T07:19:14.891Z,8.52
2022-09-22T07:29:17.764Z,8.82
2022-09-22T07:39:19.080Z,9.08
2022-09-22T07:49:22.208Z,9.42
2022-09-22T07:59:23.501Z,9.59
2022-09-22T08:09:24.842Z,9.87
2022-09-22T08:19:26.557Z,10.19
2022-09-22T08:29:27.964Z,10.62
2022-09-22T08:39:30.129Z,11.13
2022-09-22T08:49:50.319Z,11.30
2022-09-22T08:59:52.165Z,11.81
2022-09-22T09:09:53.689Z,12.20
2022-09-22T09:19:55.225Z,12.59
2022-09-22T09:29:56.569Z,13.00
2022-09-22T09:39:57.902Z,13.55
2022-09-22T09:49:59.216Z,13.78
2022-09-22T10:00:29.835Z,14.21
2022-09-22T10:10:31.908Z,14.63
2022-09-22T10:20:33.962Z,15.00
2022-09-22T10:30:37.856Z,15.19
2022-09-22T10:40:39.224Z,15.46
2022-09-22T10:50:41.243Z,15.54
2022-09-22T11:00:42.598Z,15.69
2022-09-22T11:11:02.490Z,15.86
2022-09-22T11:21:04.043Z,16.11
2022-09-22T11:31:05.392Z,16.29
2022-09-22T11:41:06.742Z,16.45
2022-09-22T11:51:08.843Z,16.64
2022-09-22T12:01:13.256Z,16.52
2022-09-22T12:11:14.860Z,16.74
2022-09-22T12:21:16.368Z,16.82
2022-09-22T12:31:18.832Z,17.09
2022-09-22T12:41:21.356Z,17.04
2022-09-22T12:51:22.677Z,16.79
2022-09-22T13:01:25.422Z,17.02
2022-09-22T13:11:26.713Z,16.92
2022-09-22T13:21:28.279Z,16.89
2022-09-22T13:31:29.496Z,17.25
2022-09-22T13:41:30.792Z,17.36
2022-09-22T13:51:32.068Z,17.38
2022-09-22T14:01:34.089Z,17.20
2022-09-22T14:11:35.447Z,17.27
2022-09-22T14:21:36.788Z,17.45
2022-09-22T14:31:38.197Z,17.52
2022-09-22T14:41:39.564Z,17.73
2022-09-22T14:51:40.868Z,17.11
2022-09-22T15:02:00.934Z,17.42
2022-09-22T15:12:02.797Z,17.42
2022-09-22T15:22:06.622Z,17.41
2022-09-22T15:32:07.857Z,17.10
2022-09-22T15:42:11.212Z,17.13
2022-09-22T15:52:12.529Z,17.07
2022-09-22T16:02:14.005Z,17.13
2022-09-22T16:12:15.386Z,16.99
2022-09-22T16:22:17.172Z,16.77
2022-09-22T16:32:19.926Z,16.86
2022-09-22T16:42:23.659Z,16.54
2022-09-22T16:52:32.000Z,16.15
2022-09-22T17:02:33.510Z,16.03
2022-09-22T17:12:35.350Z,15.65
2022-09-22T17:22:37.174Z,15.07
2022-09-22T17:32:38.516Z,14.34
2022-09-22T17:42:39.726Z,14.03
2022-09-22T17:52:59.705Z,13.68
2022-09-22T18:03:02.229Z,13.44
2022-09-22T18:13:04.336Z,13.23
2022-09-22T18:23:06.867Z,13.02
2022-09-22T18:33:08.086Z,12.87
2022-09-22T18:43:10.457Z,12.66
2022-09-22T18:53:11.956Z,12.38
2022-09-22T19:03:13.209Z,12.01
2022-09-22T19:13:17.190Z,11.82
2022-09-22T19:23:18.757Z,11.60
2022-09-22T19:33:20.341Z,11.36
2022-09-22T19:43:22.262Z,11.26
2022-09-22T19:53:24.219Z,11.03
2022-09-22T20:03:26.646Z,10.97
2022-09-22T20:13:46.759Z,10.72
2022-09-22T20:23:47.985Z,10.39
2022-09-22T20:33:49.203Z,10.21
2022-09-22T20:43:50.767Z,10.05
2022-09-22T20:53:52.030Z,9.92
2022-09-22T21:03:53.250Z,9.89
2022-09-22T21:13:55.675Z,9.76
2022-09-22T21:23:57.130Z,9.58
2022-09-22T21:33:58.509Z,9.54
2022-09-22T21:44:00.020Z,9.61
2022-09-22T21:54:03.023Z,9.64
2022-09-22T22:04:07.797Z,9.61
2022-09-22T22:14:09.419Z,9.60
2022-09-22T22:24:31.847Z,9.50
2022-09-22T22:34:33.280Z,9.34
2022-09-22T22:44:35.276Z,9.05
2022-09-22T22:54:36.601Z,8.93
2022-09-22T23:04:38.012Z,8.73
2022-09-22T23:14:39.410Z,8.50
2022-09-22T23:24:40.751Z,8.30
2022-09-22T23:34:42.122Z,8.20
2022-09-22T23:44:43.467Z,8.06
2022-09-22T23:54:44.778Z,7.87
